createdAt,value
2023-02-24T00:02:29.406Z,99821.44
2023-02-24T00:07:32.185Z,99821.16
2023-02-24T00:12:36.298Z,99821.72
2023-02-24T00:17:39.512Z,99816.06
2023-02-24T00:22:42.268Z,99816.91
2023-02-24T00:27:46.377Z,99811.66
2023-02-24T00:32:49.236Z,99812.53
2023-02-24T00:37:54.407Z,99816.31
2023-02-24T00:42:59.124Z,99807.28
2023-02-24T00:48:04.567Z,99801.34
2023-02-24T00:53:07.684Z,99798.97
2023-02-24T00:58:11.788Z,99786.53
2023-02-24T01:03:15.292Z,99791.91
2023-02-24T01:08:21.415Z,99787.78
2023-02-24T01:13:25.632Z,99784.94
2023-02-24T01:18:31.128Z,99780.72
2023-02-24T01:23:33.986Z,99780.72
2023-02-24T01:28:38.455Z,99780.84
2023-02-24T01:33:41.667Z,99778.69
2023-02-24T01:38:44.483Z,99767.91
2023-02-24T01:43:59.662Z,99756.31
2023-02-24T01:49:08.235Z,99756.13
2023-02-24T01:54:11.545Z,99751.44
2023-02-24T01:59:16.180Z,99748.16
2023-02-24T02:04:21.385Z,99743.59
2023-02-24T02:09:24.211Z,99739.72
2023-02-24T02:14:28.540Z,99739.13
2023-02-24T02:19:52.067Z,99726.38
2023-02-24T02:24:56.189Z,99723.25
2023-02-24T02:30:24.350Z,99714.72
2023-02-24T02:35:30.447Z,99723.75
2023-02-24T02:40:37.498Z,99713.53
2023-02-24T02:45:41.342Z,99734.41
2023-02-24T02:50:46.969Z,99732.13
2023-02-24T02:55:51.911Z,99727.13
2023-02-24T03:01:02.472Z,99734.34
2023-02-24T03:06:08.835Z,99731.78
2023-02-24T03:11:14.029Z,99731.16
2023-02-24T03:16:17.345Z,99731.31
2023-02-24T03:21:25.825Z,99713.66
2023-02-24T03:26:29.931Z,99726.34
2023-02-24T03:31:36.249Z,99722.81
2023-02-24T03:36:40.563Z,99704.19
2023-02-24T03:41:45.819Z,99699.81
2023-02-24T03:46:49.182Z,99689.34
2023-02-24T03:51:59.628Z,99682.28
2023-02-24T03:57:11.013Z,99681.56
2023-02-24T04:02:17.351Z,99691.31
2023-02-24T04:07:33.977Z,99684.25
2023-02-24T04:12:39.575Z,99695.09
2023-02-24T04:17:46.500Z,99681.84
2023-02-24T04:22:54.537Z,99676.47
2023-02-24T04:27:58.450Z,99669.38
2023-02-24T04:33:01.538Z,99666.84
2023-02-24T04:38:06.042Z,99669.16
2023-02-24T04:43:09.069Z,99664.03
2023-02-24T04:48:13.488Z,99656.00
2023-02-24T04:53:17.992Z,99641.16
2023-02-24T04:58:22.081Z,99639.34
2023-02-24T05:03:27.971Z,99648.50
2023-02-24T05:08:32.305Z,99639.59
2023-02-24T05:13:37.530Z,99635.09
2023-02-24T05:18:40.618Z,99620.13
2023-02-24T05:23:45.462Z,99615.63
2023-02-24T05:28:52.158Z,99617.47
2023-02-24T05:33:57.506Z,99615.72
2023-02-24T05:39:06.964Z,99621.22
2023-02-24T05:44:11.797Z,99616.00
2023-02-24T05:49:15.764Z,99616.00
2023-02-24T05:54:20.724Z,99612.03
2023-02-24T05:59:24.317Z,99611.63
2023-02-24T06:04:39.398Z,99607.25
2023-02-24T06:09:45.067Z,99598.22
2023-02-24T06:14:48.288Z,99596.69
2023-02-24T06:19:51.781Z,99592.31
2023-02-24T06:24:56.790Z,99598.63
2023-02-24T06:29:59.749Z,99587.19
2023-02-24T06:35:02.530Z,99592.53
2023-02-24T06:40:15.832Z,99590.00
2023-02-24T06:45:18.853Z,99581.34
2023-02-24T06:50:21.815Z,99575.88
2023-02-24T06:55:28.784Z,99567.97
2023-02-24T07:00:38.810Z,99565.41
2023-02-24T07:05:43.377Z,99560.91
2023-02-24T07:10:53.093Z,99550.28
2023-02-24T07:15:55.863Z,99557.47
2023-02-24T07:21:05.089Z,99563.81
2023-02-24T07:26:11.901Z,99557.63
2023-02-24T07:31:17.231Z,99553.09
2023-02-24T07:36:23.172Z,99555.78
2023-02-24T07:41:29.000Z,99544.22
2023-02-24T07:46:33.667Z,99530.00
2023-02-24T07:51:36.543Z,99521.81
2023-02-24T07:56:46.124Z,99520.97
2023-02-24T08:01:51.754Z,99514.78
2023-02-24T08:06:58.848Z,99509.56
2023-02-24T08:12:03.773Z,99499.69
2023-02-24T08:17:06.652Z,99486.03
2023-02-24T08:22:20.423Z,99472.78
2023-02-24T08:27:25.598Z,99477.25
2023-02-24T08:32:33.615Z,99479.38
2023-02-24T08:37:40.349Z,99487.66
2023-02-24T08:42:44.471Z,99466.75
2023-02-24T08:47:48.510Z,99454.88
2023-02-24T08:52:51.262Z,99434.03
2023-02-24T08:57:56.241Z,99430.00
2023-02-24T09:02:59.078Z,99415.47
2023-02-24T09:08:01.980Z,99396.25
2023-02-24T09:13:08.621Z,99384.75
2023-02-24T09:18:14.294Z,99366.50
2023-02-24T09:23:20.857Z,99358.97
2023-02-24T09:28:25.540Z,99362.69
2023-02-24T09:33:29.143Z,99359.88
2023-02-24T09:38:49.511Z,99339.16
2023-02-24T09:43:59.930Z,99328.03
2023-02-24T09:49:06.311Z,99333.38
2023-02-24T09:54:14.433Z,99312.69
2023-02-24T09:59:26.240Z,99309.19
2023-02-24T10:04:36.248Z,99297.09
2023-02-24T10:09:40.305Z,99290.75
2023-02-24T10:14:51.162Z,99288.81
2023-02-24T10:20:00.169Z,99275.97
2023-02-24T10:25:11.957Z,99271.47
2023-02-24T10:30:20.736Z,99258.91
2023-02-24T10:35:25.998Z,99241.56
2023-02-24T10:40:44.970Z,99218.19
2023-02-24T10:45:57.440Z,99210.16
2023-02-24T10:51:09.901Z,99206.50
2023-02-24T10:56:27.392Z,99198.72
2023-02-24T11:01:54.878Z,99192.50
2023-02-24T11:07:09.530Z,99180.25
2023-02-24T11:12:33.490Z,99171.00
2023-02-24T11:17:38.645Z,99165.28
2023-02-24T11:22:43.184Z,99133.75
2023-02-24T11:27:46.296Z,99131.34
2023-02-24T11:32:57.220Z,99119.22
2023-02-24T11:38:03.041Z,99118.03
2023-02-24T11:43:07.433Z,99095.63
2023-02-24T11:48:15.216Z,99093.97
2023-02-24T11:53:29.036Z,99072.41
2023-02-24T11:58:36.727Z,99071.69
2023-02-24T12:03:44.144Z,99054.34
2023-02-24T12:08:47.215Z,99048.00
2023-02-24T12:13:52.219Z,99039.69
2023-02-24T12:19:00.286Z,99029.56
2023-02-24T12:24:08.506Z,99014.50
2023-02-24T12:29:23.194Z,99014.34
2023-02-24T12:34:37.722Z,99006.47
2023-02-24T12:39:44.491Z,98997.16
2023-02-24T12:44:49.754Z,98984.06
2023-02-24T12:50:20.192Z,98983.63
2023-02-24T12:55:26.472Z,98971.94
2023-02-24T13:00:34.196Z,98976.44
2023-02-24T13:05:40.968Z,98972.91
2023-02-24T13:10:46.444Z,98957.69
2023-02-24T13:15:53.100Z,98950.81
2023-02-24T13:21:06.124Z,98948.97
2023-02-24T13:26:10.017Z,98942.78
2023-02-24T13:31:13.865Z,98941.25
2023-02-24T13:36:21.455Z,98932.38
2023-02-24T13:41:40.629Z,98930.84
2023-02-24T13:46:50.606Z,98920.97
2023-02-24T13:51:59.207Z,98914.88
2023-02-24T13:57:04.889Z,98923.22
2023-02-24T14:02:14.265Z,98917.88
2023-02-24T14:07:22.121Z,98915.47
2023-02-24T14:12:25.900Z,98921.69
2023-02-24T14:17:30.882Z,98915.19
2023-02-24T14:22:37.726Z,98909.69
2023-02-24T14:27:40.553Z,98903.78
2023-02-24T14:32:45.337Z,98906.75
2023-02-24T14:37:49.610Z,98894.50
2023-02-24T14:42:52.809Z,98880.56
2023-02-24T14:47:56.035Z,98869.00
2023-02-24T14:53:01.563Z,98867.59
2023-02-24T14:58:05.925Z,98861.41
2023-02-24T15:03:12.313Z,98843.13
2023-02-24T15:08:24.743Z,98846.50
2023-02-24T15:13:30.722Z,98840.59
2023-02-24T15:18:33.514Z,98830.88
2023-02-24T15:23:38.904Z,98826.38
2023-02-24T15:28:41.695Z,98824.97
2023-02-24T15:33:45.417Z,98819.59
2023-02-24T15:38:52.241Z,98806.09
2023-02-24T15:43:56.353Z,98808.91
2023-02-24T15:49:03.311Z,98804.53
2023-02-24T15:54:09.500Z,98803.00
2023-02-24T15:59:13.639Z,98798.81
2023-02-24T16:04:16.494Z,98780.78
2023-02-24T16:09:22.875Z,98776.53
2023-02-24T16:14:25.861Z,98773.84
2023-02-24T16:19:28.653Z,98784.56
2023-02-24T16:24:32.838Z,98770.63
2023-02-24T16:29:35.673Z,98771.63
2023-02-24T16:34:38.454Z,98763.47
2023-02-24T16:39:42.641Z,98762.75
2023-02-24T16:44:45.604Z,98758.50
2023-02-24T16:49:48.459Z,98754.25
2023-02-24T16:54:52.715Z,98748.16
2023-02-24T16:59:55.512Z,98746.06
2023-02-24T17:04:58.457Z,98740.25
2023-02-24T17:10:02.674Z,98745.19
2023-02-24T17:15:06.383Z,98734.16
2023-02-24T17:20:10.513Z,98732.03
2023-02-24T17:25:15.465Z,98739.06
2023-02-24T17:30:19.645Z,98727.03
2023-02-24T17:35:22.662Z,98716.53
2023-02-24T17:40:26.756Z,98730.59
2023-02-24T17:45:29.706Z,98716.22
2023-02-24T17:50:32.732Z,98712.41
2023-02-24T17:55:37.280Z,98711.28
2023-02-24T18:00:40.612Z,98709.44
2023-02-24T18:05:43.504Z,98695.34
2023-02-24T18:10:47.726Z,98689.25
2023-02-24T18:15:50.518Z,98682.91
2023-02-24T18:20:53.551Z,98677.25
2023-02-24T18:25:57.781Z,98671.06
2023-02-24T18:31:03.074Z,98653.28
2023-02-24T18:36:06.670Z,98651.03
2023-02-24T18:41:11.932Z,98657.13
2023-02-24T18:46:15.248Z,98650.75
2023-02-24T18:51:19.148Z,98650.22
2023-02-24T18:56:24.492Z,98643.28
2023-02-24T19:01:28.860Z,98648.50
2023-02-24T19:06:32.836Z,98630.19
2023-02-24T19:11:37.162Z,98622.59
2023-02-24T19:16:40.183Z,98615.91
2023-02-24T19:21:45.262Z,98610.44
2023-02-24T19:26:51.313Z,98604.97
2023-02-24T19:31:57.545Z,98604.88
2023-02-24T19:37:00.709Z,98594.78
2023-02-24T19:42:06.485Z,98590.66
2023-02-24T19:47:09.548Z,98586.06
2023-02-24T19:52:12.378Z,98592.75
2023-02-24T19:57:16.576Z,98573.91
2023-02-24T20:02:19.457Z,98580.09
2023-02-24T20:07:22.648Z,98561.22
2023-02-24T20:12:26.879Z,98566.31
2023-02-24T20:17:29.651Z,98565.81
2023-02-24T20:22:32.549Z,98566.81
2023-02-24T20:27:36.772Z,98571.16
2023-02-24T20:32:39.656Z,98573.47
2023-02-24T20:37:42.755Z,98569.66
2023-02-24T20:42:46.961Z,98558.41
2023-02-24T20:47:50.108Z,98567.16
2023-02-24T20:52:52.936Z,98560.00
2023-02-24T20:57:57.179Z,98553.47
2023-02-24T21:03:00.184Z,98546.28
2023-02-24T21:08:03.082Z,98539.22
2023-02-24T21:13:08.343Z,98530.69
2023-02-24T21:18:11.345Z,98525.50
2023-02-24T21:23:14.256Z,98521.66
2023-02-24T21:28:18.460Z,98515.13
2023-02-24T21:33:21.428Z,98509.38
2023-02-24T21:38:24.236Z,98513.78
2023-02-24T21:43:28.610Z,98510.25
2023-02-24T21:48:31.382Z,98502.38
2023-02-24T21:53:35.402Z,98497.69
2023-02-24T21:58:40.189Z,98499.38
2023-02-24T22:03:43.218Z,98496.03
2023-02-24T22:08:46.223Z,98500.22
2023-02-24T22:13:50.395Z,98506.28
2023-02-24T22:18:53.404Z,98495.22
2023-02-24T22:23:57.885Z,98492.22
2023-02-24T22:29:02.203Z,98489.38
2023-02-24T22:34:05.556Z,98494.94
2023-02-24T22:39:09.134Z,98494.66
2023-02-24T22:44:14.293Z,98497.03
2023-02-24T22:49:17.172Z,98493.16
2023-02-24T22:54:20.028Z,98482.28
2023-02-24T22:59:24.167Z,98495.03
2023-02-24T23:04:29.222Z,98478.59
2023-02-24T23:09:32.064Z,98474.91
2023-02-24T23:14:36.187Z,98474.91
2023-02-24T23:19:39.466Z,98472.75
2023-02-24T23:24:42.232Z,98474.44
2023-02-24T23:29:46.353Z,98476.28
2023-02-24T23:34:49.121Z,98483.31
2023-02-24T23:39:51.897Z,98476.59
2023-02-24T23:44:56.094Z,98473.44
2023-02-24T23:49:58.918Z,98471.94
2023-02-24T23:55:01.666Z,98473.59
